sensor_id;sensor_type;location;lat;lon;timestamp;temperature;humidity
42743;DHT22;28397;44.552;-0.848;2024-03-02T00:02:13;10.40;99.90
42743;DHT22;28397;44.552;-0.848;2024-03-02T00:04:40;10.40;99.90
42743;DHT22;28397;44.552;-0.848;2024-03-02T00:07:06;10.40;99.90
42743;DHT22;28397;44.552;-0.848;2024-03-02T00:09:32;10.30;99.90
42743;DHT22;28397;44.552;-0.848;2024-03-02T00:12:00;10.30;99.90
42743;DHT22;28397;44.552;-0.848;2024-03-02T00:14:27;10.30;99.90
42743;DHT22;28397;44.552;-0.848;2024-03-02T00:16:55;10.30;99.90
42743;DHT22;28397;44.552;-0.848;2024-03-02T00:19:21;10.30;99.90
42743;DHT22;28397;44.552;-0.848;2024-03-02T00:21:47;10.30;99.90
42743;DHT22;28397;44.552;-0.848;2024-03-02T00:24:32;10.30;99.90
42743;DHT22;28397;44.552;-0.848;2024-03-02T00:27:01;10.30;99.90
42743;DHT22;28397;44.552;-0.848;2024-03-02T00:29:29;10.20;99.90
42743;DHT22;28397;44.552;-0.848;2024-03-02T00:31:55;10.30;99.90
42743;DHT22;28397;44.552;-0.848;2024-03-02T00:34:21;10.30;99.90
42743;DHT22;28397;44.552;-0.848;2024-03-02T00:36:47;10.30;99.90
42743;DHT22;28397;44.552;-0.848;2024-03-02T00:39:16;10.30;99.90
42743;DHT22;28397;44.552;-0.848;2024-03-02T00:41:43;10.40;99.90
42743;DHT22;28397;44.552;-0.848;2024-03-02T00:44:12;10.60;99.90
42743;DHT22;28397;44.552;-0.848;2024-03-02T00:46:40;11.00;99.90
42743;DHT22;28397;44.552;-0.848;2024-03-02T00:49:21;11.00;99.90
42743;DHT22;28397;44.552;-0.848;2024-03-02T00:51:47;11.10;99.90
42743;DHT22;28397;44.552;-0.848;2024-03-02T00:54:20;11.20;99.90
42743;DHT22;28397;44.552;-0.848;2024-03-02T00:56:47;11.30;99.90
42743;DHT22;28397;44.552;-0.848;2024-03-02T00:59:13;11.30;99.90
42743;DHT22;28397;44.552;-0.848;2024-03-02T01:01:39;11.30;99.90
42743;DHT22;28397;44.552;-0.848;2024-03-02T01:04:04;11.20;99.90
42743;DHT22;28397;44.552;-0.848;2024-03-02T01:06:30;11.00;99.90
42743;DHT22;28397;44.552;-0.848;2024-03-02T01:08:56;10.80;99.90
42743;DHT22;28397;44.552;-0.848;2024-03-02T01:11:22;10.70;99.90
42743;DHT22;28397;44.552;-0.848;2024-03-02T01:13:48;10.60;99.90
42743;DHT22;28397;44.552;-0.848;2024-03-02T01:16:14;10.50;99.90
42743;DHT22;28397;44.552;-0.848;2024-03-02T01:18:41;10.40;99.90
42743;DHT22;28397;44.552;-0.848;2024-03-02T01:21:06;10.40;99.90
42743;DHT22;28397;44.552;-0.848;2024-03-02T01:23:32;10.30;99.90
42743;DHT22;28397;44.552;-0.848;2024-03-02T01:25:58;10.30;99.90
42743;DHT22;28397;44.552;-0.848;2024-03-02T01:28:24;10.30;99.90
42743;DHT22;28397;44.552;-0.848;2024-03-02T01:30:50;10.30;99.90
42743;DHT22;28397;44.552;-0.848;2024-03-02T01:33:17;10.20;99.90
42743;DHT22;28397;44.552;-0.848;2024-03-02T01:35:43;10.20;99.90
42743;DHT22;28397;44.552;-0.848;2024-03-02T01:38:09;10.20;99.90
42743;DHT22;28397;44.552;-0.848;2024-03-02T01:40:35;10.20;99.90
42743;DHT22;28397;44.552;-0.848;2024-03-02T01:43:01;10.10;99.90
42743;DHT22;28397;44.552;-0.848;2024-03-02T01:45:28;10.20;99.90
42743;DHT22;28397;44.552;-0.848;2024-03-02T01:47:54;10.20;99.90
42743;DHT22;28397;44.552;-0.848;2024-03-02T01:50:27;10.10;99.90
42743;DHT22;28397;44.552;-0.848;2024-03-02T01:52:55;10.20;99.90
42743;DHT22;28397;44.552;-0.848;2024-03-02T01:55:21;10.20;99.90
42743;DHT22;28397;44.552;-0.848;2024-03-02T01:57:47;10.20;99.90
42743;DHT22;28397;44.552;-0.848;2024-03-02T02:00:14;10.10;99.90
42743;DHT22;28397;44.552;-0.848;2024-03-02T02:02:40;10.10;99.90
42743;DHT22;28397;44.552;-0.848;2024-03-02T02:05:05;10.10;99.90
42743;DHT22;28397;44.552;-0.848;2024-03-02T02:07:31;10.10;99.90
42743;DHT22;28397;44.552;-0.848;2024-03-02T02:09:57;10.10;99.90
42743;DHT22;28397;44.552;-0.848;2024-03-02T02:12:23;10.10;99.90
42743;DHT22;28397;44.552;-0.848;2024-03-02T02:14:49;10.10;99.90
42743;DHT22;28397;44.552;-0.848;2024-03-02T02:17:16;10.10;99.90
42743;DHT22;28397;44.552;-0.848;2024-03-02T02:19:42;10.10;99.90
42743;DHT22;28397;44.552;-0.848;2024-03-02T02:22:11;10.10;99.90
42743;DHT22;28397;44.552;-0.848;2024-03-02T02:24:41;10.20;99.90
42743;DHT22;28397;44.552;-0.848;2024-03-02T02:27:09;10.20;99.90
42743;DHT22;28397;44.552;-0.848;2024-03-02T02:29:36;10.30;99.90
42743;DHT22;28397;44.552;-0.848;2024-03-02T02:32:02;10.60;99.90
42743;DHT22;28397;44.552;-0.848;2024-03-02T02:34:28;10.70;99.90
42743;DHT22;28397;44.552;-0.848;2024-03-02T02:36:53;10.90;99.90
42743;DHT22;28397;44.552;-0.848;2024-03-02T02:39:21;11.00;99.90
42743;DHT22;28397;44.552;-0.848;2024-03-02T02:41:48;11.10;99.90
42743;DHT22;28397;44.552;-0.848;2024-03-02T02:44:13;11.10;99.90
42743;DHT22;28397;44.552;-0.848;2024-03-02T02:46:40;11.20;99.90
42743;DHT22;28397;44.552;-0.848;2024-03-02T02:49:06;11.20;99.90
42743;DHT22;28397;44.552;-0.848;2024-03-02T02:51:32;11.10;99.90
42743;DHT22;28397;44.552;-0.848;2024-03-02T02:53:57;11.00;99.90
42743;DHT22;28397;44.552;-0.848;2024-03-02T02:56:24;10.90;99.90
42743;DHT22;28397;44.552;-0.848;2024-03-02T02:58:50;10.80;99.90
42743;DHT22;28397;44.552;-0.848;2024-03-02T03:01:16;10.70;99.90
42743;DHT22;28397;44.552;-0.848;2024-03-02T03:03:44;10.60;99.90
42743;DHT22;28397;44.552;-0.848;2024-03-02T03:06:11;10.60;99.90
42743;DHT22;28397;44.552;-0.848;2024-03-02T03:08:37;10.60;99.90
42743;DHT22;28397;44.552;-0.848;2024-03-02T03:11:03;10.50;99.90
42743;DHT22;28397;44.552;-0.848;2024-03-02T03:13:30;10.50;99.90
42743;DHT22;28397;44.552;-0.848;2024-03-02T03:15:56;10.50;99.90
42743;DHT22;28397;44.552;-0.848;2024-03-02T03:18:22;10.50;99.90
42743;DHT22;28397;44.552;-0.848;2024-03-02T03:20:47;10.50;99.90
42743;DHT22;28397;44.552;-0.848;2024-03-02T03:23:13;10.50;99.90
42743;DHT22;28397;44.552;-0.848;2024-03-02T03:25:41;10.40;99.90
42743;DHT22;28397;44.552;-0.848;2024-03-02T03:28:07;10.40;99.90
42743;DHT22;28397;44.552;-0.848;2024-03-02T03:30:39;10.40;99.90
42743;DHT22;28397;44.552;-0.848;2024-03-02T03:33:05;10.40;99.90
42743;DHT22;28397;44.552;-0.848;2024-03-02T03:35:32;10.40;99.90
42743;DHT22;28397;44.552;-0.848;2024-03-02T03:37:58;10.30;99.90
42743;DHT22;28397;44.552;-0.848;2024-03-02T03:40:24;10.30;99.90
42743;DHT22;28397;44.552;-0.848;2024-03-02T03:42:49;10.30;99.90
42743;DHT22;28397;44.552;-0.848;2024-03-02T03:45:16;10.30;99.90
42743;DHT22;28397;44.552;-0.848;2024-03-02T03:47:41;10.20;99.90
42743;DHT22;28397;44.552;-0.848;2024-03-02T03:50:07;10.20;99.90
42743;DHT22;28397;44.552;-0.848;2024-03-02T03:52:33;10.10;99.90
42743;DHT22;28397;44.552;-0.848;2024-03-02T03:54:59;10.10;99.90
42743;DHT22;28397;44.552;-0.848;2024-03-02T03:57:26;10.10;99.90
42743;DHT22;28397;44.552;-0.848;2024-03-02T03:59:52;10.00;99.90
42743;DHT22;28397;44.552;-0.848;2024-03-02T04:02:18;10.00;99.90
42743;DHT22;28397;44.552;-0.848;2024-03-02T04:04:44;10.10;99.90
42743;DHT22;28397;44.552;-0.848;2024-03-02T04:07:10;10.00;99.90
42743;DHT22;28397;44.552;-0.848;2024-03-02T04:09:35;10.10;99.90
42743;DHT22;28397;44.552;-0.848;2024-03-02T04:12:01;10.00;99.90
42743;DHT22;28397;44.552;-0.848;2024-03-02T04:14:27;10.00;99.90
42743;DHT22;28397;44.552;-0.848;2024-03-02T04:16:52;10.00;99.90
42743;DHT22;28397;44.552;-0.848;2024-03-02T04:19:18;10.10;99.90
42743;DHT22;28397;44.552;-0.848;2024-03-02T04:21:44;10.30;99.90
42743;DHT22;28397;44.552;-0.848;2024-03-02T04:24:09;10.60;99.90
42743;DHT22;28397;44.552;-0.848;2024-03-02T04:26:35;10.80;99.90
42743;DHT22;28397;44.552;-0.848;2024-03-02T04:29:01;10.70;99.90
42743;DHT22;28397;44.552;-0.848;2024-03-02T04:31:27;10.90;99.90
42743;DHT22;28397;44.552;-0.848;2024-03-02T04:33:52;10.90;99.90
42743;DHT22;28397;44.552;-0.848;2024-03-02T04:36:19;10.90;99.90
42743;DHT22;28397;44.552;-0.848;2024-03-02T04:38:45;10.90;99.90
42743;DHT22;28397;44.552;-0.848;2024-03-02T04:41:10;10.80;99.90
42743;DHT22;28397;44.552;-0.848;2024-03-02T04:43:36;10.60;99.90
42743;DHT22;28397;44.552;-0.848;2024-03-02T04:46:02;10.50;99.90
42743;DHT22;28397;44.552;-0.848;2024-03-02T04:48:27;10.30;99.90
42743;DHT22;28397;44.552;-0.848;2024-03-02T04:50:53;10.20;99.90
42743;DHT22;28397;44.552;-0.848;2024-03-02T04:53:19;10.10;99.90
42743;DHT22;28397;44.552;-0.848;2024-03-02T04:55:45;10.00;99.90
42743;DHT22;28397;44.552;-0.848;2024-03-02T04:58:19;10.00;99.90
42743;DHT22;28397;44.552;-0.848;2024-03-02T05:00:45;9.90;99.90
42743;DHT22;28397;44.552;-0.848;2024-03-02T05:03:12;9.90;99.90
42743;DHT22;28397;44.552;-0.848;2024-03-02T05:05:38;9.90;99.90
42743;DHT22;28397;44.552;-0.848;2024-03-02T05:08:04;9.90;99.90
42743;DHT22;28397;44.552;-0.848;2024-03-02T05:10:30;9.90;99.90
42743;DHT22;28397;44.552;-0.848;2024-03-02T05:12:55;9.90;99.90
42743;DHT22;28397;44.552;-0.848;2024-03-02T05:15:25;9.90;99.90
42743;DHT22;28397;44.552;-0.848;2024-03-02T05:17:51;9.90;99.90
42743;DHT22;28397;44.552;-0.848;2024-03-02T05:20:16;9.90;99.90
42743;DHT22;28397;44.552;-0.848;2024-03-02T05:22:42;9.80;99.90
42743;DHT22;28397;44.552;-0.848;2024-03-02T05:25:08;9.90;99.90
42743;DHT22;28397;44.552;-0.848;2024-03-02T05:27:35;9.80;99.90
42743;DHT22;28397;44.552;-0.848;2024-03-02T05:30:01;9.80;99.90
42743;DHT22;28397;44.552;-0.848;2024-03-02T05:32:27;9.80;99.90
42743;DHT22;28397;44.552;-0.848;2024-03-02T05:34:53;9.80;99.90
42743;DHT22;28397;44.552;-0.848;2024-03-02T05:37:18;9.70;99.90
42743;DHT22;28397;44.552;-0.848;2024-03-02T05:39:45;9.80;99.90
42743;DHT22;28397;44.552;-0.848;2024-03-02T05:42:11;9.70;99.90
42743;DHT22;28397;44.552;-0.848;2024-03-02T05:44:36;9.70;99.90
42743;DHT22;28397;44.552;-0.848;2024-03-02T05:47:02;9.70;99.90
42743;DHT22;28397;44.552;-0.848;2024-03-02T05:49:29;9.70;99.90
42743;DHT22;28397;44.552;-0.848;2024-03-02T05:51:55;9.60;99.90
42743;DHT22;28397;44.552;-0.848;2024-03-02T05:54:21;9.60;99.90
42743;DHT22;28397;44.552;-0.848;2024-03-02T05:56:47;9.60;99.90
42743;DHT22;28397;44.552;-0.848;2024-03-02T05:59:13;9.60;99.90
42743;DHT22;28397;44.552;-0.848;2024-03-02T06:01:47;9.60;99.90
42743;DHT22;28397;44.552;-0.848;2024-03-02T06:04:13;9.60;99.90
42743;DHT22;28397;44.552;-0.848;2024-03-02T06:06:40;9.70;99.90
42743;DHT22;28397;44.552;-0.848;2024-03-02T06:09:06;9.80;99.90
42743;DHT22;28397;44.552;-0.848;2024-03-02T06:11:38;10.10;99.90
42743;DHT22;28397;44.552;-0.848;2024-03-02T06:14:05;10.30;99.90
42743;DHT22;28397;44.552;-0.848;2024-03-02T06:16:31;10.40;99.90
42743;DHT22;28397;44.552;-0.848;2024-03-02T06:18:57;10.60;99.90
42743;DHT22;28397;44.552;-0.848;2024-03-02T06:21:26;10.60;99.90
42743;DHT22;28397;44.552;-0.848;2024-03-02T06:23:53;10.60;99.90
42743;DHT22;28397;44.552;-0.848;2024-03-02T06:26:19;10.70;99.90
42743;DHT22;28397;44.552;-0.848;2024-03-02T06:28:45;10.60;99.90
42743;DHT22;28397;44.552;-0.848;2024-03-02T06:31:11;10.70;99.90
42743;DHT22;28397;44.552;-0.848;2024-03-02T06:33:37;10.50;99.90
42743;DHT22;28397;44.552;-0.848;2024-03-02T06:36:03;10.40;99.90
42743;DHT22;28397;44.552;-0.848;2024-03-02T06:38:29;10.20;99.90
42743;DHT22;28397;44.552;-0.848;2024-03-02T06:40:57;10.20;99.90
42743;DHT22;28397;44.552;-0.848;2024-03-02T06:43:23;10.20;99.90
42743;DHT22;28397;44.552;-0.848;2024-03-02T06:45:52;10.10;99.90
42743;DHT22;28397;44.552;-0.848;2024-03-02T06:48:18;10.10;99.90
42743;DHT22;28397;44.552;-0.848;2024-03-02T06:50:49;10.10;99.90
42743;DHT22;28397;44.552;-0.848;2024-03-02T06:53:15;10.00;99.90
42743;DHT22;28397;44.552;-0.848;2024-03-02T06:55:43;10.00;99.90
42743;DHT22;28397;44.552;-0.848;2024-03-02T06:58:11;9.90;99.90
42743;DHT22;28397;44.552;-0.848;2024-03-02T07:00:36;9.90;99.90
42743;DHT22;28397;44.552;-0.848;2024-03-02T07:03:02;9.90;99.90
42743;DHT22;28397;44.552;-0.848;2024-03-02T07:05:28;9.80;99.90
42743;DHT22;28397;44.552;-0.848;2024-03-02T07:07:53;9.80;99.90
42743;DHT22;28397;44.552;-0.848;2024-03-02T07:10:19;9.80;99.90
42743;DHT22;28397;44.552;-0.848;2024-03-02T07:12:46;9.80;99.90
42743;DHT22;28397;44.552;-0.848;2024-03-02T07:15:12;9.80;99.90
42743;DHT22;28397;44.552;-0.848;2024-03-02T07:17:54;9.80;99.90
42743;DHT22;28397;44.552;-0.848;2024-03-02T07:20:20;9.80;99.90
42743;DHT22;28397;44.552;-0.848;2024-03-02T07:22:46;9.80;99.90
42743;DHT22;28397;44.552;-0.848;2024-03-02T07:25:12;9.90;99.90
42743;DHT22;28397;44.552;-0.848;2024-03-02T07:27:38;9.90;99.90
42743;DHT22;28397;44.552;-0.848;2024-03-02T07:30:05;9.80;99.90
42743;DHT22;28397;44.552;-0.848;2024-03-02T07:32:31;9.80;99.90
42743;DHT22;28397;44.552;-0.848;2024-03-02T07:34:56;9.80;99.90
42743;DHT22;28397;44.552;-0.848;2024-03-02T07:37:23;9.80;99.90
42743;DHT22;28397;44.552;-0.848;2024-03-02T07:39:49;9.80;99.90
42743;DHT22;28397;44.552;-0.848;2024-03-02T07:42:15;9.80;99.90
42743;DHT22;28397;44.552;-0.848;2024-03-02T07:44:41;9.80;99.90
42743;DHT22;28397;44.552;-0.848;2024-03-02T07:47:06;9.80;99.90
42743;DHT22;28397;44.552;-0.848;2024-03-02T07:49:32;9.80;99.90
42743;DHT22;28397;44.552;-0.848;2024-03-02T07:51:58;9.80;99.90
42743;DHT22;28397;44.552;-0.848;2024-03-02T07:54:24;9.80;99.90
42743;DHT22;28397;44.552;-0.848;2024-03-02T07:56:49;9.80;99.90
42743;DHT22;28397;44.552;-0.848;2024-03-02T07:59:15;9.80;99.90
42743;DHT22;28397;44.552;-0.848;2024-03-02T08:01:41;9.80;99.90
42743;DHT22;28397;44.552;-0.848;2024-03-02T08:04:07;10.00;99.90
42743;DHT22;28397;44.552;-0.848;2024-03-02T08:06:33;10.40;99.90
42743;DHT22;28397;44.552;-0.848;2024-03-02T08:09:00;10.50;99.90
42743;DHT22;28397;44.552;-0.848;2024-03-02T08:11:26;10.70;99.90
42743;DHT22;28397;44.552;-0.848;2024-03-02T08:13:56;10.80;99.90
42743;DHT22;28397;44.552;-0.848;2024-03-02T08:16:25;10.90;99.90
42743;DHT22;28397;44.552;-0.848;2024-03-02T08:18:51;10.80;99.90
42743;DHT22;28397;44.552;-0.848;2024-03-02T08:21:17;10.90;99.90
42743;DHT22;28397;44.552;-0.848;2024-03-02T08:23:43;10.90;99.90
42743;DHT22;28397;44.552;-0.848;2024-03-02T08:26:10;10.80;99.90
42743;DHT22;28397;44.552;-0.848;2024-03-02T08:28:36;10.60;99.90
42743;DHT22;28397;44.552;-0.848;2024-03-02T08:31:07;10.60;99.90
42743;DHT22;28397;44.552;-0.848;2024-03-02T08:33:33;10.50;99.90
42743;DHT22;28397;44.552;-0.848;2024-03-02T08:35:59;10.50;99.90
42743;DHT22;28397;44.552;-0.848;2024-03-02T08:38:25;10.50;99.90
42743;DHT22;28397;44.552;-0.848;2024-03-02T08:40:51;10.50;99.90
42743;DHT22;28397;44.552;-0.848;2024-03-02T08:43:17;10.50;99.90
42743;DHT22;28397;44.552;-0.848;2024-03-02T08:45:43;10.50;99.90
42743;DHT22;28397;44.552;-0.848;2024-03-02T08:48:08;10.60;99.90
42743;DHT22;28397;44.552;-0.848;2024-03-02T08:50:35;10.60;99.90
42743;DHT22;28397;44.552;-0.848;2024-03-02T08:53:01;10.60;99.90
42743;DHT22;28397;44.552;-0.848;2024-03-02T08:55:27;10.60;99.90
42743;DHT22;28397;44.552;-0.848;2024-03-02T08:57:53;10.60;99.90
42743;DHT22;28397;44.552;-0.848;2024-03-02T09:00:19;10.60;99.90
42743;DHT22;28397;44.552;-0.848;2024-03-02T09:02:45;10.70;99.90
42743;DHT22;28397;44.552;-0.848;2024-03-02T09:05:11;10.70;99.90
42743;DHT22;28397;44.552;-0.848;2024-03-02T09:07:36;10.80;99.90
42743;DHT22;28397;44.552;-0.848;2024-03-02T09:10:05;10.90;99.90
42743;DHT22;28397;44.552;-0.848;2024-03-02T09:12:31;10.90;99.90
42743;DHT22;28397;44.552;-0.848;2024-03-02T09:14:57;11.00;99.90
42743;DHT22;28397;44.552;-0.848;2024-03-02T09:17:23;11.10;99.90
42743;DHT22;28397;44.552;-0.848;2024-03-02T09:19:49;11.10;99.90
42743;DHT22;28397;44.552;-0.848;2024-03-02T09:22:18;11.10;99.90
42743;DHT22;28397;44.552;-0.848;2024-03-02T09:24:44;11.00;99.90
42743;DHT22;28397;44.552;-0.848;2024-03-02T09:27:09;11.00;99.90
42743;DHT22;28397;44.552;-0.848;2024-03-02T09:29:35;11.10;99.90
42743;DHT22;28397;44.552;-0.848;2024-03-02T09:32:00;11.10;99.90
42743;DHT22;28397;44.552;-0.848;2024-03-02T09:34:26;11.30;99.90
42743;DHT22;28397;44.552;-0.848;2024-03-02T09:36:52;11.30;99.90
42743;DHT22;28397;44.552;-0.848;2024-03-02T09:39:18;11.40;99.90
42743;DHT22;28397;44.552;-0.848;2024-03-02T09:41:43;11.50;99.90
42743;DHT22;28397;44.552;-0.848;2024-03-02T09:44:09;11.70;99.90
42743;DHT22;28397;44.552;-0.848;2024-03-02T09:46:35;11.70;99.90
42743;DHT22;28397;44.552;-0.848;2024-03-02T09:49:02;11.70;99.90
42743;DHT22;28397;44.552;-0.848;2024-03-02T09:51:28;11.70;99.90
42743;DHT22;28397;44.552;-0.848;2024-03-02T09:53:55;11.80;99.90
42743;DHT22;28397;44.552;-0.848;2024-03-02T09:56:21;12.00;99.90
42743;DHT22;28397;44.552;-0.848;2024-03-02T09:58:47;12.10;99.90
42743;DHT22;28397;44.552;-0.848;2024-03-02T10:01:13;12.30;99.90
42743;DHT22;28397;44.552;-0.848;2024-03-02T10:03:39;12.40;99.90
42743;DHT22;28397;44.552;-0.848;2024-03-02T10:06:23;12.50;99.90
42743;DHT22;28397;44.552;-0.848;2024-03-02T10:08:49;12.70;99.90
42743;DHT22;28397;44.552;-0.848;2024-03-02T10:11:45;12.80;99.90
42743;DHT22;28397;44.552;-0.848;2024-03-02T10:14:12;12.90;99.90
42743;DHT22;28397;44.552;-0.848;2024-03-02T10:19:18;12.80;99.90
42743;DHT22;28397;44.552;-0.848;2024-03-02T10:21:50;12.70;99.90
42743;DHT22;28397;44.552;-0.848;2024-03-02T10:24:20;12.70;99.90
42743;DHT22;28397;44.552;-0.848;2024-03-02T10:26:47;12.60;99.90
42743;DHT22;28397;44.552;-0.848;2024-03-02T10:29:13;12.60;99.90
42743;DHT22;28397;44.552;-0.848;2024-03-02T10:31:39;12.50;99.90
42743;DHT22;28397;44.552;-0.848;2024-03-02T10:34:06;12.40;99.90
42743;DHT22;28397;44.552;-0.848;2024-03-02T10:36:36;12.40;99.90
42743;DHT22;28397;44.552;-0.848;2024-03-02T10:39:06;12.40;99.90
42743;DHT22;28397;44.552;-0.848;2024-03-02T10:41:36;12.30;99.90
42743;DHT22;28397;44.552;-0.848;2024-03-02T10:44:03;12.30;99.90
42743;DHT22;28397;44.552;-0.848;2024-03-02T10:46:31;12.20;99.90
42743;DHT22;28397;44.552;-0.848;2024-03-02T10:48:58;12.20;99.90
42743;DHT22;28397;44.552;-0.848;2024-03-02T10:51:28;12.20;99.90
42743;DHT22;28397;44.552;-0.848;2024-03-02T10:53:57;12.10;99.90
42743;DHT22;28397;44.552;-0.848;2024-03-02T10:56:29;12.20;99.90
42743;DHT22;28397;44.552;-0.848;2024-03-02T10:59:48;12.10;99.90
42743;DHT22;28397;44.552;-0.848;2024-03-02T11:01:48;12.10;99.90
42743;DHT22;28397;44.552;-0.848;2024-03-02T11:04:17;12.10;99.90
42743;DHT22;28397;44.552;-0.848;2024-03-02T11:06:48;12.00;99.90
42743;DHT22;28397;44.552;-0.848;2024-03-02T11:09:14;12.00;99.90
42743;DHT22;28397;44.552;-0.848;2024-03-02T11:11:43;12.00;99.90
42743;DHT22;28397;44.552;-0.848;2024-03-02T11:14:16;11.90;99.90
42743;DHT22;28397;44.552;-0.848;2024-03-02T11:16:42;11.90;99.90
42743;DHT22;28397;44.552;-0.848;2024-03-02T11:19:15;11.80;99.90
42743;DHT22;28397;44.552;-0.848;2024-03-02T11:21:42;11.70;99.90
42743;DHT22;28397;44.552;-0.848;2024-03-02T11:27:14;11.60;99.90
42743;DHT22;28397;44.552;-0.848;2024-03-02T11:30:00;11.60;99.90
42743;DHT22;28397;44.552;-0.848;2024-03-02T11:32:26;11.50;99.90
42743;DHT22;28397;44.552;-0.848;2024-03-02T11:34:51;11.50;99.90
42743;DHT22;28397;44.552;-0.848;2024-03-02T11:37:18;11.40;99.90
42743;DHT22;28397;44.552;-0.848;2024-03-02T11:39:46;11.30;99.90
42743;DHT22;28397;44.552;-0.848;2024-03-02T11:42:13;11.00;99.90
42743;DHT22;28397;44.552;-0.848;2024-03-02T11:44:47;10.70;99.90
42743;DHT22;28397;44.552;-0.848;2024-03-02T11:47:14;11.00;99.90
42743;DHT22;28397;44.552;-0.848;2024-03-02T11:49:52;11.00;99.90
42743;DHT22;28397;44.552;-0.848;2024-03-02T11:52:18;11.00;99.90
42743;DHT22;28397;44.552;-0.848;2024-03-02T11:54:45;11.00;99.90
42743;DHT22;28397;44.552;-0.848;2024-03-02T11:57:18;11.00;99.90
42743;DHT22;28397;44.552;-0.848;2024-03-02T11:59:44;11.00;99.90
42743;DHT22;28397;44.552;-0.848;2024-03-02T12:02:20;10.90;99.90
42743;DHT22;28397;44.552;-0.848;2024-03-02T12:04:47;10.90;99.90
42743;DHT22;28397;44.552;-0.848;2024-03-02T12:07:19;10.60;99.90
42743;DHT22;28397;44.552;-0.848;2024-03-02T12:09:46;10.50;99.90
42743;DHT22;28397;44.552;-0.848;2024-03-02T12:12:12;10.40;99.90
42743;DHT22;28397;44.552;-0.848;2024-03-02T12:14:50;10.40;99.90
42743;DHT22;28397;44.552;-0.848;2024-03-02T12:17:16;10.30;99.90
42743;DHT22;28397;44.552;-0.848;2024-03-02T12:19:41;10.30;99.90
42743;DHT22;28397;44.552;-0.848;2024-03-02T12:22:07;10.20;99.90
42743;DHT22;28397;44.552;-0.848;2024-03-02T12:24:33;10.20;99.90
42743;DHT22;28397;44.552;-0.848;2024-03-02T12:26:59;10.20;99.90
42743;DHT22;28397;44.552;-0.848;2024-03-02T12:29:24;10.20;99.90
42743;DHT22;28397;44.552;-0.848;2024-03-02T12:31:52;10.20;99.90
42743;DHT22;28397;44.552;-0.848;2024-03-02T12:34:18;10.20;99.90
42743;DHT22;28397;44.552;-0.848;2024-03-02T12:36:46;10.20;99.90
42743;DHT22;28397;44.552;-0.848;2024-03-02T12:39:14;10.20;99.90
42743;DHT22;28397;44.552;-0.848;2024-03-02T12:41:39;10.20;99.90
42743;DHT22;28397;44.552;-0.848;2024-03-02T12:44:05;10.20;99.90
42743;DHT22;28397;44.552;-0.848;2024-03-02T12:46:32;10.20;99.90
42743;DHT22;28397;44.552;-0.848;2024-03-02T12:48:58;10.20;99.90
42743;DHT22;28397;44.552;-0.848;2024-03-02T12:51:24;10.20;99.90
42743;DHT22;28397;44.552;-0.848;2024-03-02T12:53:55;10.20;99.90
42743;DHT22;28397;44.552;-0.848;2024-03-02T12:56:21;10.20;99.90
42743;DHT22;28397;44.552;-0.848;2024-03-02T12:58:46;10.30;99.90
42743;DHT22;28397;44.552;-0.848;2024-03-02T13:01:15;10.30;99.90
42743;DHT22;28397;44.552;-0.848;2024-03-02T13:03:43;10.20;99.90
42743;DHT22;28397;44.552;-0.848;2024-03-02T13:06:09;10.20;99.90
42743;DHT22;28397;44.552;-0.848;2024-03-02T13:08:35;10.20;99.90
42743;DHT22;28397;44.552;-0.848;2024-03-02T13:11:01;10.20;99.90
42743;DHT22;28397;44.552;-0.848;2024-03-02T13:13:30;10.20;99.90
42743;DHT22;28397;44.552;-0.848;2024-03-02T13:15:56;10.20;99.90
42743;DHT22;28397;44.552;-0.848;2024-03-02T13:18:22;10.20;99.90
42743;DHT22;28397;44.552;-0.848;2024-03-02T13:20:48;10.20;99.90
42743;DHT22;28397;44.552;-0.848;2024-03-02T13:23:13;10.30;99.90
42743;DHT22;28397;44.552;-0.848;2024-03-02T13:25:39;10.30;99.90
42743;DHT22;28397;44.552;-0.848;2024-03-02T13:28:06;10.30;99.90
42743;DHT22;28397;44.552;-0.848;2024-03-02T13:30:32;10.30;99.90
42743;DHT22;28397;44.552;-0.848;2024-03-02T13:32:58;10.30;99.90
42743;DHT22;28397;44.552;-0.848;2024-03-02T13:35:24;10.40;99.90
42743;DHT22;28397;44.552;-0.848;2024-03-02T13:37:49;10.70;99.90
42743;DHT22;28397;44.552;-0.848;2024-03-02T13:40:15;10.90;99.90
42743;DHT22;28397;44.552;-0.848;2024-03-02T13:42:45;10.90;99.90
42743;DHT22;28397;44.552;-0.848;2024-03-02T13:45:12;11.00;99.90
42743;DHT22;28397;44.552;-0.848;2024-03-02T13:47:38;11.00;99.90
42743;DHT22;28397;44.552;-0.848;2024-03-02T13:50:04;11.00;99.90
42743;DHT22;28397;44.552;-0.848;2024-03-02T13:52:31;11.10;99.90
42743;DHT22;28397;44.552;-0.848;2024-03-02T13:54:57;11.10;99.90
42743;DHT22;28397;44.552;-0.848;2024-03-02T13:57:23;10.90;99.90
42743;DHT22;28397;44.552;-0.848;2024-03-02T13:59:48;10.80;99.90
42743;DHT22;28397;44.552;-0.848;2024-03-02T14:02:15;10.60;99.90
42743;DHT22;28397;44.552;-0.848;2024-03-02T14:04:40;10.50;99.90
42743;DHT22;28397;44.552;-0.848;2024-03-02T14:07:07;10.40;99.90
42743;DHT22;28397;44.552;-0.848;2024-03-02T14:09:32;10.30;99.90
42743;DHT22;28397;44.552;-0.848;2024-03-02T14:11:58;10.30;99.90
42743;DHT22;28397;44.552;-0.848;2024-03-02T14:14:26;10.20;99.90
42743;DHT22;28397;44.552;-0.848;2024-03-02T14:16:53;10.20;99.90
42743;DHT22;28397;44.552;-0.848;2024-03-02T14:19:19;10.10;99.90
42743;DHT22;28397;44.552;-0.848;2024-03-02T14:21:47;10.10;99.90
42743;DHT22;28397;44.552;-0.848;2024-03-02T14:24:13;10.10;99.90
42743;DHT22;28397;44.552;-0.848;2024-03-02T14:26:39;10.10;99.90
42743;DHT22;28397;44.552;-0.848;2024-03-02T14:29:05;10.10;99.90
42743;DHT22;28397;44.552;-0.848;2024-03-02T14:31:31;10.10;99.90
42743;DHT22;28397;44.552;-0.848;2024-03-02T14:33:57;10.10;99.90
42743;DHT22;28397;44.552;-0.848;2024-03-02T14:36:22;10.10;99.90
42743;DHT22;28397;44.552;-0.848;2024-03-02T14:38:48;10.10;99.90
42743;DHT22;28397;44.552;-0.848;2024-03-02T14:41:14;10.00;99.90
42743;DHT22;28397;44.552;-0.848;2024-03-02T14:43:40;10.10;99.90
42743;DHT22;28397;44.552;-0.848;2024-03-02T14:46:06;10.00;99.90
42743;DHT22;28397;44.552;-0.848;2024-03-02T14:48:35;10.00;99.90
42743;DHT22;28397;44.552;-0.848;2024-03-02T14:51:01;10.00;99.90
42743;DHT22;28397;44.552;-0.848;2024-03-02T14:53:27;10.00;99.90
42743;DHT22;28397;44.552;-0.848;2024-03-02T14:55:54;10.00;99.90
42743;DHT22;28397;44.552;-0.848;2024-03-02T14:58:19;10.00;99.90
42743;DHT22;28397;44.552;-0.848;2024-03-02T15:00:45;9.90;99.90
42743;DHT22;28397;44.552;-0.848;2024-03-02T15:03:11;9.90;99.90
42743;DHT22;28397;44.552;-0.848;2024-03-02T15:05:38;9.90;99.90
42743;DHT22;28397;44.552;-0.848;2024-03-02T15:08:04;9.90;99.90
42743;DHT22;28397;44.552;-0.848;2024-03-02T15:10:31;9.80;99.90
42743;DHT22;28397;44.552;-0.848;2024-03-02T15:12:57;9.80;99.90
42743;DHT22;28397;44.552;-0.848;2024-03-02T15:15:23;9.80;99.90
42743;DHT22;28397;44.552;-0.848;2024-03-02T15:17:49;9.80;99.90
42743;DHT22;28397;44.552;-0.848;2024-03-02T15:20:16;9.80;99.90
42743;DHT22;28397;44.552;-0.848;2024-03-02T15:22:41;9.80;99.90